Time;durP1;ratioP1;P1;durP2;ratioP2;P2;SDS_P1;SDS_P2;PMS_P1;PMS_P2;Temp;Humidity;BMP_temperature;BMP_pressure;BME280_temperature;BME280_humidity;BME280_pressure;Samples;Min_cycle;Max_cycle;Signal;HPM_P1;HPM_P2
2023/08/15 00:02:18;;;;;;;7.78;6.07;;;20.60;99.90;;;;;;4983832;28;20030;-79
2023/08/15 00:04:44;;;;;;;7.50;6.25;;;20.60;99.90;;;;;;4983496;28;20029;-79
2023/08/15 00:07:10;;;;;;;6.35;5.75;;;20.50;99.90;;;;;;4971245;28;20522;-78
2023/08/15 00:09:35;;;;;;;6.10;5.50;;;20.50;99.90;;;;;;4974382;28;20062;-80
2023/08/15 00:12:01;;;;;;;8.48;5.82;;;20.40;99.90;;;;;;4983218;28;20042;-80
2023/08/15 00:14:27;;;;;;;10.25;6.30;;;20.40;99.90;;;;;;4989393;28;20122;-82
2023/08/15 00:16:53;;;;;;;9.18;5.35;;;20.40;99.90;;;;;;4990828;28;20109;-81
2023/08/15 00:19:18;;;;;;;7.68;5.40;;;20.30;99.90;;;;;;4992483;28;20035;-82
2023/08/15 00:21:44;;;;;;;6.65;5.85;;;20.20;99.90;;;;;;4953689;28;20019;-79
2023/08/15 00:24:10;;;;;;;7.05;6.35;;;20.30;99.90;;;;;;4983502;28;20059;-77
2023/08/15 00:26:36;;;;;;;7.22;6.00;;;20.30;99.90;;;;;;4987398;28;20062;-80
2023/08/15 00:29:02;;;;;;;6.47;5.65;;;20.20;99.90;;;;;;4976971;28;20031;-80
2023/08/15 00:31:28;;;;;;;8.23;6.47;;;20.20;99.90;;;;;;4990253;28;20121;-80
2023/08/15 00:33:54;;;;;;;7.93;6.97;;;20.20;99.90;;;;;;4985824;28;20050;-79
2023/08/15 00:36:20;;;;;;;7.07;6.38;;;20.10;99.90;;;;;;4991057;28;20031;-79
2023/08/15 00:38:45;;;;;;;7.53;6.80;;;20.10;99.90;;;;;;4987209;28;20395;-79
2023/08/15 00:41:11;;;;;;;8.68;6.88;;;20.10;99.90;;;;;;4993493;28;20395;-80
2023/08/15 00:43:37;;;;;;;8.32;6.30;;;20.10;99.90;;;;;;4992062;28;20110;-80
2023/08/15 00:46:06;;;;;;;7.70;6.63;;;20.10;99.90;;;;;;4981569;28;20054;-80
2023/08/15 00:48:32;;;;;;;13.95;6.85;;;20.00;99.90;;;;;;4996372;28;20029;-79
2023/08/15 00:51:02;;;;;;;7.97;6.97;;;20.00;99.90;;;;;;4982505;28;20034;-79
2023/08/15 00:53:29;;;;;;;8.38;6.47;;;20.00;99.90;;;;;;4976533;28;20035;-80
2023/08/15 00:55:57;;;;;;;7.00;6.25;;;19.90;99.90;;;;;;4999371;28;20037;-80
2023/08/15 00:58:24;;;;;;;7.63;6.90;;;19.90;99.90;;;;;;4977554;28;20544;-79
2023/08/15 01:00:51;;;;;;;9.90;7.93;;;19.90;99.90;;;;;;4966614;28;20096;-80
2023/08/15 01:03:18;;;;;;;10.60;7.55;;;19.80;99.90;;;;;;4965742;28;20046;-80
2023/08/15 01:05:44;;;;;;;8.93;7.30;;;19.70;99.90;;;;;;4976851;28;20038;-80
2023/08/15 01:08:10;;;;;;;7.50;6.70;;;19.70;99.90;;;;;;4984784;28;20037;-79
2023/08/15 01:10:41;;;;;;;7.70;7.00;;;19.70;99.90;;;;;;4983336;28;20035;-80
2023/08/15 01:13:27;;;;;;;8.18;7.38;;;19.70;99.90;;;;;;4981993;28;20340;-78
2023/08/15 01:15:53;;;;;;;10.48;7.50;;;19.70;99.90;;;;;;4992553;28;20034;-79
2023/08/15 01:18:33;;;;;;;9.70;7.47;;;19.60;99.90;;;;;;4975404;28;20089;-79
2023/08/15 01:21:01;;;;;;;7.85;7.05;;;19.60;99.90;;;;;;4986699;28;20033;-79
2023/08/15 01:23:53;;;;;;;8.68;7.53;;;19.60;99.90;;;;;;4971415;28;20045;-80
2023/08/15 01:26:19;;;;;;;7.72;6.97;;;19.50;99.90;;;;;;4964395;28;20050;-80
2023/08/15 01:28:44;;;;;;;9.10;7.32;;;19.50;99.90;;;;;;4980464;28;20518;-79
2023/08/15 01:31:25;;;;;;;7.20;6.50;;;19.50;99.90;;;;;;4985355;28;20035;-79
2023/08/15 01:34:16;;;;;;;7.03;6.35;;;19.50;99.90;;;;;;4990995;28;20088;-79
2023/08/15 01:37:01;;;;;;;9.45;6.72;;;19.50;99.90;;;;;;4973018;28;20034;-80
2023/08/15 01:39:31;;;;;;;7.70;6.93;;;19.50;99.90;;;;;;4969603;28;20108;-79
2023/08/15 01:42:01;;;;;;;8.07;7.07;;;19.40;99.90;;;;;;4990050;28;20148;-80
2023/08/15 01:44:29;;;;;;;6.47;5.88;;;19.40;99.90;;;;;;4992214;28;20026;-79
2023/08/15 01:46:56;;;;;;;7.15;6.30;;;19.40;99.90;;;;;;4988272;28;20023;-80
2023/08/15 01:49:22;;;;;;;10.60;7.20;;;19.30;99.90;;;;;;4990599;28;20041;-80
2023/08/15 01:51:49;;;;;;;8.30;6.88;;;19.30;99.90;;;;;;4973027;28;20026;-79
2023/08/15 01:54:34;;;;;;;;;;;19.30;99.90;;;;;;4987795;28;20045;-78
2023/08/15 01:56:59;;;;;;;7.75;7.05;;;19.30;99.90;;;;;;4984937;28;19914;-80
2023/08/15 01:59:25;;;;;;;7.28;6.68;;;19.20;99.90;;;;;;4970150;28;20054;-78
2023/08/15 02:01:51;;;;;;;9.38;7.40;;;19.20;99.90;;;;;;4967540;28;20034;-79
2023/08/15 02:04:36;;;;;;;7.78;6.97;;;19.20;99.90;;;;;;4986230;28;20517;-80
2023/08/15 02:07:02;;;;;;;10.43;7.03;;;19.10;99.90;;;;;;4967028;28;20034;-79
2023/08/15 02:09:27;;;;;;;8.57;7.63;;;19.10;99.90;;;;;;4967661;28;20444;-80
2023/08/15 02:11:53;;;;;;;10.63;8.25;;;19.10;99.90;;;;;;4992134;28;20483;-79
2023/08/15 02:14:19;;;;;;;9.27;8.38;;;19.10;99.90;;;;;;4983665;28;20054;-80
2023/08/15 02:16:45;;;;;;;9.50;8.60;;;19.10;99.90;;;;;;4994241;28;20085;-80
2023/08/15 02:19:12;;;;;;;8.48;7.60;;;19.10;99.90;;;;;;4975463;28;20019;-80
2023/08/15 02:21:38;;;;;;;8.95;7.90;;;19.00;99.90;;;;;;4988419;28;20077;-79
2023/08/15 02:24:03;;;;;;;8.43;7.57;;;19.00;99.90;;;;;;4973991;28;20030;-79
2023/08/15 02:26:29;;;;;;;9.15;8.27;;;19.00;99.90;;;;;;4992387;28;20117;-79
2023/08/15 02:28:55;;;;;;;8.82;7.93;;;19.00;99.90;;;;;;4992812;28;20077;-79
2023/08/15 02:31:21;;;;;;;8.43;7.63;;;19.00;99.90;;;;;;4980838;28;20038;-77
2023/08/15 02:33:47;;;;;;;8.60;7.72;;;19.00;99.90;;;;;;4984886;28;20031;-78
2023/08/15 02:36:13;;;;;;;8.95;7.63;;;18.90;99.90;;;;;;4990565;28;20160;-79
2023/08/15 02:38:39;;;;;;;8.48;7.10;;;18.90;99.90;;;;;;4994442;28;20111;-78
2023/08/15 02:41:05;;;;;;;8.40;7.43;;;18.90;99.90;;;;;;4991001;28;20022;-78
2023/08/15 02:43:31;;;;;;;8.73;7.82;;;18.90;99.90;;;;;;4982842;28;20105;-79
2023/08/15 02:45:58;;;;;;;7.90;6.97;;;18.90;99.90;;;;;;4996310;28;20030;-80
2023/08/15 02:48:26;;;;;;;8.57;7.70;;;18.90;99.90;;;;;;4987117;28;20473;-80
2023/08/15 02:50:51;;;;;;;10.82;7.22;;;18.80;99.90;;;;;;4989434;28;20065;-80
2023/08/15 02:53:17;;;;;;;10.30;7.45;;;18.80;99.90;;;;;;4985454;28;20047;-80
2023/08/15 02:55:43;;;;;;;10.40;7.80;;;18.80;99.90;;;;;;4981600;28;20446;-79
2023/08/15 02:58:08;;;;;;;8.27;7.47;;;18.80;99.90;;;;;;4995464;28;20053;-80
2023/08/15 03:00:35;;;;;;;9.38;8.38;;;18.70;99.90;;;;;;4992889;28;20178;-79
2023/08/15 03:03:01;;;;;;;9.13;8.23;;;18.70;99.90;;;;;;4997496;28;20137;-80
2023/08/15 03:05:27;;;;;;;9.45;8.57;;;18.70;99.90;;;;;;4991600;28;20704;-79
2023/08/15 03:07:52;;;;;;;9.90;8.48;;;18.60;99.90;;;;;;4994529;28;20034;-79
2023/08/15 03:10:18;;;;;;;9.27;8.38;;;18.60;99.90;;;;;;4993802;28;20053;-80
2023/08/15 03:12:45;;;;;;;8.73;7.90;;;18.60;99.90;;;;;;4991869;28;20102;-80
2023/08/15 03:15:11;;;;;;;11.02;8.35;;;18.60;99.90;;;;;;4958707;28;20991;-79
2023/08/15 03:17:39;;;;;;;10.60;8.63;;;18.60;99.90;;;;;;4988160;28;20053;-79
2023/08/15 03:20:06;;;;;;;9.68;8.70;;;18.60;99.90;;;;;;4988471;28;20030;-79
2023/08/15 03:22:32;;;;;;;9.38;8.07;;;18.50;99.90;;;;;;4980249;28;20034;-80
2023/08/15 03:24:58;;;;;;;8.18;7.38;;;18.50;99.90;;;;;;4969686;28;20035;-79
2023/08/15 03:27:24;;;;;;;11.35;8.82;;;18.50;99.90;;;;;;4958366;28;20038;-79
2023/08/15 03:29:49;;;;;;;8.85;7.95;;;18.50;99.90;;;;;;4987147;28;20030;-79
2023/08/15 03:32:15;;;;;;;8.80;8.00;;;18.50;99.90;;;;;;4959079;28;20450;-80
2023/08/15 03:34:42;;;;;;;9.02;7.63;;;18.50;99.90;;;;;;4971917;28;20403;-80
2023/08/15 03:37:09;;;;;;;8.00;7.30;;;18.50;99.90;;;;;;4969732;28;20121;-79
2023/08/15 03:39:34;;;;;;;8.05;7.35;;;18.50;99.90;;;;;;4985648;28;20085;-80
2023/08/15 03:42:01;;;;;;;8.93;7.53;;;18.50;99.90;;;;;;4967452;28;20491;-78
2023/08/15 03:44:27;;;;;;;8.88;7.60;;;18.50;99.90;;;;;;4981004;28;20038;-78
2023/08/15 03:46:52;;;;;;;8.82;7.68;;;18.50;99.90;;;;;;4968181;28;20100;-80
2023/08/15 03:49:18;;;;;;;10.45;7.20;;;18.40;99.90;;;;;;4975819;28;20037;-80
2023/08/15 03:51:44;;;;;;;9.60;7.07;;;18.50;99.90;;;;;;4986987;28;20092;-79
2023/08/15 03:54:10;;;;;;;8.90;7.93;;;18.40;99.90;;;;;;4969544;28;20125;-80
2023/08/15 03:56:36;;;;;;;9.63;6.63;;;18.40;99.90;;;;;;4988718;28;20022;-80
2023/08/15 03:59:02;;;;;;;8.45;7.55;;;18.40;99.90;;;;;;4973575;28;20026;-79
2023/08/15 04:01:28;;;;;;;7.47;6.32;;;18.40;99.90;;;;;;4978296;28;20043;-79
2023/08/15 04:03:56;;;;;;;7.72;6.93;;;18.40;99.90;;;;;;4973741;28;20036;-79
2023/08/15 04:06:22;;;;;;;8.93;7.22;;;18.40;99.90;;;;;;4991429;28;20038;-80
2023/08/15 04:08:48;;;;;;;13.02;9.05;;;18.40;99.90;;;;;;4975379;28;20574;-80
2023/08/15 04:11:14;;;;;;;14.65;9.68;;;18.40;99.90;;;;;;4982172;28;20029;-79
2023/08/15 04:13:41;;;;;;;11.52;10.32;;;18.50;99.90;;;;;;4983581;28;20059;-79
2023/08/15 04:16:07;;;;;;;11.38;10.13;;;18.50;99.90;;;;;;4965353;28;20121;-79
2023/08/15 04:18:35;;;;;;;9.95;8.73;;;18.50;99.90;;;;;;4969891;28;20030;-80
2023/08/15 04:21:01;;;;;;;9.52;8.63;;;18.40;99.90;;;;;;4981364;28;20091;-79
2023/08/15 04:23:26;;;;;;;9.73;7.97;;;18.40;99.90;;;;;;4965167;28;20119;-80
2023/08/15 04:25:52;;;;;;;9.15;8.35;;;18.40;99.90;;;;;;4986780;28;20041;-79
2023/08/15 04:28:18;;;;;;;9.32;8.50;;;18.40;99.90;;;;;;4974347;28;20511;-79
2023/08/15 04:30:44;;;;;;;12.07;8.60;;;18.40;99.90;;;;;;4967762;28;20053;-79
2023/08/15 04:33:10;;;;;;;11.35;8.18;;;18.40;99.90;;;;;;4973861;28;20033;-80
2023/08/15 04:35:39;;;;;;;12.32;8.05;;;18.40;99.90;;;;;;4990741;28;20042;-79
2023/08/15 04:38:05;;;;;;;9.10;7.43;;;18.40;99.90;;;;;;4973788;28;20034;-79
2023/08/15 04:40:33;;;;;;;8.50;6.57;;;18.40;99.90;;;;;;4956023;28;20031;-80
2023/08/15 04:43:00;;;;;;;6.95;5.75;;;18.50;99.90;;;;;;4952530;28;20027;-79
2023/08/15 04:45:25;;;;;;;7.18;5.80;;;18.50;99.90;;;;;;4989098;28;20100;-78
2023/08/15 04:47:52;;;;;;;7.13;6.25;;;18.50;99.90;;;;;;4995905;28;20022;-80
2023/08/15 04:50:18;;;;;;;6.55;5.78;;;18.50;99.90;;;;;;4983485;28;20637;-78
2023/08/15 04:52:44;;;;;;;6.80;5.63;;;18.50;99.90;;;;;;4977204;28;20034;-78
2023/08/15 04:55:10;;;;;;;6.60;5.88;;;18.50;99.90;;;;;;4994464;28;20023;-77
2023/08/15 04:57:40;;;;;;;8.15;7.05;;;18.50;99.90;;;;;;4995471;28;20030;-77
2023/08/15 05:00:11;;;;;;;7.22;6.53;;;18.50;99.90;;;;;;4993717;28;20044;-79
2023/08/15 05:02:40;;;;;;;12.30;6.70;;;18.50;99.90;;;;;;4976828;28;20030;-79
2023/08/15 05:05:10;;;;;;;6.80;6.20;;;18.50;99.90;;;;;;4988194;28;20049;-79
2023/08/15 05:07:37;;;;;;;7.45;6.25;;;18.50;99.90;;;;;;4969042;28;20833;-79
2023/08/15 05:10:03;;;;;;;9.43;8.02;;;18.60;99.90;;;;;;4974201;28;20034;-79
2023/08/15 05:12:29;;;;;;;10.85;7.60;;;18.60;99.90;;;;;;4974351;28;20495;-79
2023/08/15 05:14:56;;;;;;;8.93;8.02;;;18.80;99.90;;;;;;4979275;28;20126;-77
2023/08/15 05:17:22;;;;;;;10.38;8.38;;;18.80;99.90;;;;;;4976823;28;20030;-79
2023/08/15 05:19:48;;;;;;;7.45;6.75;;;18.90;99.90;;;;;;4991228;28;20029;-78
2023/08/15 05:22:14;;;;;;;9.98;8.05;;;19.00;99.90;;;;;;4970796;28;20057;-78
2023/08/15 05:24:41;;;;;;;9.05;8.15;;;19.00;99.90;;;;;;4996527;28;20633;-77
2023/08/15 05:27:10;;;;;;;13.05;10.80;;;19.10;99.90;;;;;;4988052;28;20117;-79
2023/08/15 05:29:36;;;;;;;12.48;11.02;;;19.20;99.90;;;;;;4988596;28;20062;-77
2023/08/15 05:32:04;;;;;;;12.93;10.85;;;19.30;99.90;;;;;;4985212;28;20065;-78
2023/08/15 05:34:29;;;;;;;12.40;11.07;;;19.30;99.90;;;;;;4971705;28;20077;-78
2023/08/15 05:36:55;;;;;;;12.30;11.10;;;19.40;99.90;;;;;;4990542;28;20064;-79
2023/08/15 05:39:21;;;;;;;12.48;11.07;;;19.60;99.90;;;;;;4971985;28;20518;-77
2023/08/15 05:41:47;;;;;;;14.40;11.80;;;19.70;99.90;;;;;;4987522;28;20026;-77
2023/08/15 05:44:13;;;;;;;12.88;11.57;;;19.90;99.90;;;;;;4981540;28;20041;-78
2023/08/15 05:46:38;;;;;;;13.95;11.25;;;20.10;99.90;;;;;;4986400;28;20408;-78
2023/08/15 05:49:04;;;;;;;11.13;9.40;;;20.30;99.90;;;;;;4986312;28;20491;-79
2023/08/15 05:51:30;;;;;;;10.98;9.38;;;20.60;99.90;;;;;;4990586;28;20919;-80
2023/08/15 05:53:55;;;;;;;8.93;8.02;;;20.80;99.90;;;;;;4985409;28;20042;-77
2023/08/15 05:56:21;;;;;;;10.70;7.13;;;21.10;99.90;;;;;;4986049;28;20034;-79
2023/08/15 05:58:47;;;;;;;6.95;6.25;;;21.40;99.90;;;;;;4990685;28;20058;-78
2023/08/15 06:01:13;;;;;;;9.88;7.78;;;21.60;99.90;;;;;;4973376;28;20033;-77
2023/08/15 06:03:38;;;;;;;8.68;6.82;;;21.80;99.90;;;;;;4988539;28;20065;-78
2023/08/15 06:06:04;;;;;;;8.80;7.22;;;22.00;99.90;;;;;;4991329;28;20038;-77
2023/08/15 06:08:30;;;;;;;11.90;8.48;;;22.20;99.90;;;;;;4990707;28;20066;-79
2023/08/15 06:10:55;;;;;;;14.55;8.43;;;22.30;99.90;;;;;;4987451;28;20035;-80
2023/08/15 06:13:21;;;;;;;9.50;8.52;;;22.40;99.90;;;;;;4990589;28;20043;-79
2023/08/15 06:15:47;;;;;;;9.70;8.77;;;22.60;99.90;;;;;;4982726;28;20065;-78
2023/08/15 06:18:13;;;;;;;11.70;8.52;;;22.80;99.90;;;;;;4989145;28;20031;-78
2023/08/15 06:20:39;;;;;;;9.20;8.00;;;22.90;99.90;;;;;;4980884;28;20036;-78
2023/08/15 06:23:04;;;;;;;13.27;8.95;;;23.10;99.90;;;;;;4983133;28;20100;-79
2023/08/15 06:25:30;;;;;;;12.32;8.50;;;23.40;99.90;;;;;;4986262;28;20203;-80
2023/08/15 06:27:56;;;;;;;9.27;6.70;;;23.60;99.90;;;;;;4982848;28;20041;-77
2023/08/15 06:30:22;;;;;;;10.40;7.10;;;23.80;99.90;;;;;;4997735;28;20043;-79
2023/08/15 06:32:47;;;;;;;10.20;6.18;;;24.00;99.90;;;;;;4985981;28;20077;-78
2023/08/15 06:35:13;;;;;;;10.18;7.70;;;24.30;99.90;;;;;;4982981;28;20036;-78
2023/08/15 06:37:39;;;;;;;11.27;7.78;;;24.50;99.90;;;;;;4995943;28;20091;-78
2023/08/15 06:40:08;;;;;;;9.07;7.43;;;24.70;99.90;;;;;;4999782;28;20046;-79
2023/08/15 06:42:33;;;;;;;12.95;8.10;;;25.00;99.90;;;;;;4973897;28;20035;-79
2023/08/15 06:45:08;;;;;;;10.45;8.00;;;25.00;99.90;;;;;;4970938;28;20064;-79
2023/08/15 06:47:34;;;;;;;9.63;7.82;;;25.10;99.90;;;;;;4986426;28;20092;-78
2023/08/15 06:50:00;;;;;;;9.55;7.90;;;25.20;99.90;;;;;;4992279;28;20034;-78
2023/08/15 06:52:26;;;;;;;8.50;7.35;;;25.20;99.90;;;;;;4990845;28;20041;-77
2023/08/15 06:54:51;;;;;;;10.45;7.30;;;25.30;99.90;;;;;;4997880;28;20038;-79
2023/08/15 06:57:17;;;;;;;7.18;6.47;;;25.50;99.90;;;;;;4995939;28;20475;-78
2023/08/15 06:59:43;;;;;;;11.23;7.38;;;25.70;99.90;;;;;;4989055;28;20515;-78
2023/08/15 07:02:10;;;;;;;9.75;7.30;;;25.70;99.90;;;;;;4986658;28;20034;-78
2023/08/15 07:04:40;;;;;;;7.95;6.78;;;25.80;99.90;;;;;;4996128;28;20101;-78
2023/08/15 07:07:08;;;;;;;7.70;6.80;;;26.10;99.90;;;;;;4995830;28;20057;-79
2023/08/15 07:09:35;;;;;;;9.75;7.07;;;26.30;99.90;;;;;;4990435;28;20045;-80
2023/08/15 07:12:02;;;;;;;12.45;7.00;;;26.40;99.90;;;;;;4991310;28;20033;-79
2023/08/15 07:14:28;;;;;;;9.18;7.18;;;26.50;99.90;;;;;;4985525;28;20038;-80
2023/08/15 07:16:54;;;;;;;7.13;6.43;;;26.70;99.90;;;;;;4995912;28;20041;-78
2023/08/15 07:19:20;;;;;;;7.35;6.47;;;26.80;99.90;;;;;;5000806;28;20027;-78
2023/08/15 07:21:45;;;;;;;10.00;6.78;;;26.90;99.90;;;;;;4995778;28;20030;-78
2023/08/15 07:24:11;;;;;;;7.85;6.80;;;26.90;99.90;;;;;;4994582;28;20503;-77
2023/08/15 07:26:37;;;;;;;9.98;6.47;;;27.00;99.90;;;;;;4998187;28;20033;-78
2023/08/15 07:29:03;;;;;;;9.75;6.78;;;27.20;99.90;;;;;;4989373;28;20065;-78
2023/08/15 07:31:29;;;;;;;7.47;6.68;;;27.20;99.90;;;;;;4984549;28;20034;-78
2023/08/15 07:33:54;;;;;;;11.25;7.00;;;27.30;99.90;;;;;;4987024;28;20031;-80
2023/08/15 07:36:20;;;;;;;8.13;6.88;;;27.20;99.90;;;;;;4983934;28;20034;-79
2023/08/15 07:38:46;;;;;;;9.45;7.07;;;27.20;99.90;;;;;;4990377;28;20037;-80
2023/08/15 07:41:11;;;;;;;9.98;6.88;;;27.00;99.90;;;;;;4987058;28;20112;-81
2023/08/15 07:43:37;;;;;;;7.18;6.47;;;26.90;99.90;;;;;;4990562;28;20038;-80
2023/08/15 07:46:03;;;;;;;7.45;6.75;;;26.90;99.90;;;;;;4987074;28;20566;-81
2023/08/15 07:48:29;;;;;;;12.50;6.60;;;26.90;99.90;;;;;;4990937;28;20059;-81
2023/08/15 07:50:55;;;;;;;8.43;6.78;;;26.90;99.90;;;;;;4993380;28;20098;-78
2023/08/15 07:53:22;;;;;;;9.90;8.15;;;27.00;99.90;;;;;;4987722;28;20035;-78
2023/08/15 07:55:48;;;;;;;11.25;7.72;;;27.00;99.90;;;;;;4978852;28;20043;-80
2023/08/15 07:58:14;;;;;;;8.73;7.88;;;26.90;99.90;;;;;;4984608;28;20159;-78
2023/08/15 08:00:42;;;;;;;9.38;8.40;;;27.00;99.90;;;;;;4981454;28;20267;-81
2023/08/15 08:03:08;;;;;;;10.48;7.70;;;27.00;99.90;;;;;;4960587;28;20042;-79
2023/08/15 08:05:34;;;;;;;8.60;7.43;;;27.10;99.90;;;;;;4986306;28;20035;-80
2023/08/15 08:08:01;;;;;;;8.13;7.32;;;27.20;99.90;;;;;;4974558;28;20034;-80
2023/08/15 08:10:27;;;;;;;9.30;7.88;;;27.20;99.90;;;;;;4984848;28;20049;-80
2023/08/15 08:12:53;;;;;;;8.75;7.82;;;27.20;99.90;;;;;;4962521;28;20034;-79
2023/08/15 08:15:23;;;;;;;8.38;7.57;;;27.20;99.90;;;;;;4975081;28;20042;-78
2023/08/15 08:17:49;;;;;;;8.65;7.75;;;27.30;99.90;;;;;;4976888;28;20085;-76
2023/08/15 08:20:17;;;;;;;8.40;7.22;;;27.30;99.90;;;;;;4982912;28;20687;-78
2023/08/15 08:22:46;;;;;;;10.02;6.13;;;27.40;99.90;;;;;;4992080;28;20574;-79
2023/08/15 08:25:19;;;;;;;10.50;8.18;;;27.40;99.90;;;;;;4964969;28;20562;-81
2023/08/15 08:27:45;;;;;;;8.05;6.95;;;27.50;99.90;;;;;;4985671;28;20030;-80
2023/08/15 08:30:12;;;;;;;9.55;7.70;;;27.60;99.90;;;;;;4972450;28;20718;-81
2023/08/15 08:32:38;;;;;;;8.32;7.30;;;27.80;99.90;;;;;;4980312;28;20134;-82
2023/08/15 08:35:05;;;;;;;8.13;7.32;;;27.90;99.90;;;;;;4987564;28;20495;-81
2023/08/15 08:37:32;;;;;;;8.77;7.78;;;28.00;99.90;;;;;;4977798;28;20059;-80
2023/08/15 08:39:58;;;;;;;11.38;7.53;;;28.00;99.90;;;;;;4981161;28;20026;-79
2023/08/15 08:42:24;;;;;;;8.90;6.82;;;28.00;99.90;;;;;;4977256;28;20043;-80
2023/08/15 08:44:50;;;;;;;8.15;7.45;;;28.10;99.90;;;;;;4979374;28;20109;-80
2023/08/15 08:47:20;;;;;;;9.88;7.47;;;28.10;99.90;;;;;;4989143;28;20372;-80
2023/08/15 08:49:48;;;;;;;8.65;7.72;;;28.10;99.90;;;;;;4991029;28;20651;-79
2023/08/15 08:52:15;;;;;;;8.73;7.40;;;28.10;99.90;;;;;;4966689;28;20045;-80
2023/08/15 08:54:41;;;;;;;8.00;6.95;;;28.10;99.90;;;;;;4983228;28;20029;-80
2023/08/15 08:57:07;;;;;;;8.85;6.55;;;28.20;99.90;;;;;;4967241;28;20113;-81
2023/08/15 08:59:35;;;;;;;6.95;6.35;;;28.20;99.90;;;;;;4985801;28;20042;-80
2023/08/15 09:02:01;;;;;;;8.18;6.55;;;28.30;99.90;;;;;;4984713;28;20030;-81
2023/08/15 09:04:27;;;;;;;7.05;6.00;;;28.20;99.90;;;;;;4991446;28;20081;-78
2023/08/15 09:06:53;;;;;;;7.78;6.72;;;28.20;99.90;;;;;;4985626;28;20038;-79
2023/08/15 09:09:22;;;;;;;7.65;6.40;;;28.20;99.90;;;;;;4992264;28;20125;-78
2023/08/15 09:11:50;;;;;;;6.47;5.88;;;28.20;99.90;;;;;;4990193;28;20026;-79
2023/08/15 09:14:17;;;;;;;6.70;5.82;;;28.10;99.90;;;;;;4984719;28;20086;-79
2023/08/15 09:16:48;;;;;;;6.35;5.75;;;28.10;99.90;;;;;;4988090;28;20387;-83
2023/08/15 09:19:16;;;;;;;5.45;4.93;;;28.00;99.90;;;;;;4991627;28;20026;-83
2023/08/15 09:21:43;;;;;;;8.85;5.78;;;28.00;99.90;;;;;;4974954;28;20086;-77
2023/08/15 09:24:09;;;;;;;7.90;5.97;;;27.90;99.90;;;;;;4986638;28;20404;-78
2023/08/15 09:26:36;;;;;;;7.18;6.13;;;27.80;99.90;;;;;;4991171;28;20030;-78
2023/08/15 09:29:04;;;;;;;14.20;6.85;;;27.80;99.90;;;;;;4995181;28;20077;-81
2023/08/15 09:31:30;;;;;;;6.13;5.43;;;27.80;99.90;;;;;;4973919;28;20033;-81
2023/08/15 09:33:56;;;;;;;8.93;5.80;;;27.90;99.90;;;;;;4988822;28;20547;-77
2023/08/15 09:36:26;;;;;;;9.20;5.85;;;28.00;99.90;;;;;;4993473;28;20042;-80
2023/08/15 09:38:55;;;;;;;6.45;5.88;;;28.00;99.90;;;;;;4989120;28;20054;-79
2023/08/15 09:41:25;;;;;;;8.43;5.72;;;28.00;99.90;;;;;;4983525;28;20983;-77
2023/08/15 09:43:52;;;;;;;7.05;5.57;;;28.00;99.90;;;;;;4982235;28;20138;-83
2023/08/15 09:46:18;;;;;;;7.32;5.18;;;28.10;99.90;;;;;;4990267;28;20038;-80
2023/08/15 09:48:48;;;;;;;6.80;5.45;;;28.10;99.90;;;;;;4991184;28;20655;-81
2023/08/15 09:51:16;;;;;;;6.95;5.55;;;28.10;99.90;;;;;;4989246;28;20031;-77
2023/08/15 09:53:44;;;;;;;6.32;5.50;;;28.20;99.90;;;;;;4973711;28;20044;-81
2023/08/15 09:56:11;;;;;;;9.60;7.20;;;28.20;99.90;;;;;;4986779;28;20455;-80
2023/08/15 09:58:38;;;;;;;8.05;6.57;;;28.20;99.90;;;;;;4994418;28;20035;-83
2023/08/15 10:01:10;;;;;;;7.15;5.90;;;28.10;99.90;;;;;;4986796;28;20033;-82
2023/08/15 10:03:57;;;;;;;7.47;6.05;;;28.10;99.90;;;;;;4986703;28;20719;-80
2023/08/15 10:06:24;;;;;;;6.78;6.18;;;28.20;99.90;;;;;;4992234;28;20093;-79
2023/08/15 10:08:49;;;;;;;9.00;7.05;;;28.20;99.90;;;;;;4992997;28;20101;-83
2023/08/15 10:11:16;;;;;;;11.45;7.22;;;28.30;99.90;;;;;;4984535;28;20026;-78
2023/08/15 10:13:44;;;;;;;8.13;6.88;;;28.40;99.90;;;;;;4991276;28;20054;-80
2023/08/15 10:16:12;;;;;;;8.55;7.65;;;28.50;99.90;;;;;;4979414;28;20500;-80
2023/08/15 10:18:38;;;;;;;10.52;7.30;;;28.50;99.90;;;;;;4974353;28;20490;-81
2023/08/15 10:21:04;;;;;;;8.05;7.20;;;28.50;99.90;;;;;;4992937;28;20093;-85
2023/08/15 10:23:32;;;;;;;7.80;7.05;;;28.50;99.90;;;;;;4954027;28;20050;-84
2023/08/15 10:26:17;;;;;;;10.07;7.75;;;28.50;99.90;;;;;;4980449;28;20054;-84
2023/08/15 10:28:46;;;;;;;10.00;8.02;;;28.50;99.90;;;;;;4984948;28;20034;-81
2023/08/15 10:31:11;;;;;;;8.75;6.72;;;28.60;99.90;;;;;;4964747;28;20038;-83
2023/08/15 10:33:38;;;;;;;6.75;6.05;;;28.60;99.90;;;;;;4985113;28;20026;-82
2023/08/15 10:36:04;;;;;;;11.88;7.18;;;28.60;99.90;;;;;;4988832;28;20034;-84
2023/08/15 10:38:39;;;;;;;9.00;6.70;;;28.70;99.90;;;;;;4993834;28;20759;-83
2023/08/15 10:41:06;;;;;;;7.15;6.10;;;28.80;99.90;;;;;;4987060;28;20364;-82
2023/08/15 10:43:36;;;;;;;7.63;6.22;;;28.90;99.90;;;;;;4969882;28;20035;-82
2023/08/15 10:46:04;;;;;;;12.50;6.93;;;29.10;99.90;;;;;;4984979;28;20031;-80
2023/08/15 10:48:42;;;;;;;8.05;6.82;;;28.90;99.90;;;;;;4992494;28;20448;-78
2023/08/15 10:51:23;;;;;;;8.73;7.47;;;28.80;99.90;;;;;;4990212;28;20026;-78
2023/08/15 10:54:00;;;;;;;10.20;6.40;;;28.90;99.90;;;;;;4988282;28;20030;-80
2023/08/15 10:56:28;;;;;;;6.93;6.28;;;29.00;99.90;;;;;;4974925;28;20100;-80
2023/08/15 10:58:55;;;;;;;7.90;6.10;;;29.10;99.90;;;;;;4989072;28;20487;-82
2023/08/15 11:01:26;;;;;;;6.70;5.85;;;29.20;99.90;;;;;;4990515;28;20672;-79
2023/08/15 11:03:54;;;;;;;7.18;5.80;;;29.30;99.90;;;;;;4989478;28;20030;-80
2023/08/15 11:06:20;;;;;;;5.85;5.35;;;29.50;99.90;;;;;;4993330;28;20108;-79
2023/08/15 11:08:51;;;;;;;5.72;5.20;;;29.60;99.90;;;;;;4986781;28;20030;-81
2023/08/15 11:11:17;;;;;;;9.63;6.22;;;29.60;99.90;;;;;;4982134;28;20038;-80
2023/08/15 11:13:46;;;;;;;7.22;6.05;;;29.60;99.90;;;;;;4984948;28;20539;-79
2023/08/15 11:16:14;;;;;;;6.00;5.50;;;29.70;99.90;;;;;;4991386;28;20038;-80
2023/08/15 11:18:41;;;;;;;5.85;5.40;;;29.60;99.90;;;;;;4989918;28;20034;-79
2023/08/15 11:21:13;;;;;;;6.28;5.78;;;29.60;99.90;;;;;;4988378;28;20105;-78
2023/08/15 11:23:39;;;;;;;6.88;5.70;;;29.70;99.90;;;;;;4990588;28;20636;-80
2023/08/15 11:26:16;;;;;;;5.72;5.20;;;29.60;99.90;;;;;;4986409;28;20026;-79
2023/08/15 11:28:42;;;;;;;6.65;5.93;;;29.60;99.90;;;;;;4984493;28;20027;-81
2023/08/15 11:31:10;;;;;;;8.98;5.75;;;29.60;99.90;;;;;;4980643;28;20030;-76
2023/08/15 11:33:36;;;;;;;8.15;5.18;;;29.70;99.90;;;;;;4980532;28;20034;-81
2023/08/15 11:36:07;;;;;;;7.78;5.55;;;29.90;99.90;;;;;;4985539;28;20026;-80
2023/08/15 11:38:34;;;;;;;5.57;5.07;;;30.10;99.90;;;;;;4985558;28;20031;-81
2023/08/15 11:41:02;;;;;;;5.80;5.18;;;30.20;99.90;;;;;;4965716;28;20723;-77
2023/08/15 11:43:29;;;;;;;6.13;5.35;;;30.30;99.90;;;;;;4965501;28;20420;-78
2023/08/15 11:45:55;;;;;;;6.47;5.32;;;30.50;99.90;;;;;;4981723;28;20295;-79
2023/08/15 11:48:21;;;;;;;6.00;5.40;;;30.60;99.90;;;;;;4977819;28;20038;-77
2023/08/15 11:50:47;;;;;;;5.45;4.85;;;30.80;99.90;;;;;;4979627;28;20031;-78
2023/08/15 11:53:15;;;;;;;6.70;4.85;;;30.80;99.90;;;;;;4981339;28;20429;-77
2023/08/15 11:55:42;;;;;;;5.53;4.90;;;30.80;99.90;;;;;;4981755;28;20129;-81
2023/08/15 11:58:28;;;;;;;5.50;4.68;;;30.80;99.90;;;;;;4982634;28;20092;-80
2023/08/15 12:01:01;;;;;;;6.65;4.55;;;30.80;99.90;;;;;;4974337;28;20023;-77
2023/08/15 12:03:27;;;;;;;6.78;4.15;;;30.80;99.90;;;;;;4974528;28;20114;-76
2023/08/15 12:05:58;;;;;;;7.13;3.97;;;30.80;99.90;;;;;;4979331;28;20061;-81
2023/08/15 12:08:28;;;;;;;6.10;3.80;;;30.80;99.90;;;;;;4980620;28;20053;-81
2023/08/15 12:10:55;;;;;;;5.10;4.10;;;30.90;99.90;;;;;;4983208;28;20030;-77
2023/08/15 12:13:36;;;;;;;7.95;4.40;;;30.80;99.90;;;;;;4982414;28;20065;-79
2023/08/15 12:16:03;;;;;;;8.10;4.10;;;30.70;99.90;;;;;;4980994;28;20022;-77
2023/08/15 12:18:30;;;;;;;6.43;3.78;;;30.80;99.90;;;;;;4979068;28;20105;-80
2023/08/15 12:20:56;;;;;;;10.45;3.38;;;30.90;99.90;;;;;;4983496;28;20026;-80
2023/08/15 12:23:22;;;;;;;5.35;3.28;;;30.90;97.80;;;;;;4987850;28;20027;-82
2023/08/15 12:25:48;;;;;;;9.68;3.13;;;30.90;97.30;;;;;;4994992;28;20038;-81
2023/08/15 12:28:14;;;;;;;5.45;3.30;;;30.80;96.40;;;;;;4999509;28;20034;-80
2023/08/15 12:30:39;;;;;;;4.47;2.92;;;30.90;96.30;;;;;;4994045;28;20034;-81
2023/08/15 12:33:05;;;;;;;7.05;3.40;;;30.90;99.20;;;;;;4996443;28;20446;-82
2023/08/15 12:35:34;;;;;;;4.82;3.65;;;30.90;99.90;;;;;;4988374;28;20038;-82
2023/08/15 12:38:00;;;;;;;3.50;3.17;;;30.80;99.90;;;;;;4990892;28;20058;-78
2023/08/15 12:40:26;;;;;;;6.07;3.90;;;30.80;96.60;;;;;;4973925;28;20062;-82
2023/08/15 12:42:52;;;;;;;5.43;3.00;;;30.80;97.50;;;;;;4989732;28;20443;-82
2023/08/15 12:45:18;;;;;;;3.25;2.95;;;30.80;98.20;;;;;;4989965;28;20030;-81
2023/08/15 12:47:44;;;;;;;6.53;3.08;;;30.90;99.40;;;;;;4997437;28;20068;-82